sensor_id;sensor_type;location;lat;lon;timestamp;P1;durP1;ratioP1;P2;durP2;ratioP2
18048;SDS011;9149;47.002;8.604;2022-08-30T00:01:25;13.57;;;4.60;;
18048;SDS011;9149;47.002;8.604;2022-08-30T00:03:54;7.45;;;4.32;;
18048;SDS011;9149;47.002;8.604;2022-08-30T00:06:22;7.10;;;4.30;;
18048;SDS011;9149;47.002;8.604;2022-08-30T00:08:50;7.95;;;4.47;;
18048;SDS011;9149;47.002;8.604;2022-08-30T00:11:18;7.90;;;4.65;;
18048;SDS011;9149;47.002;8.604;2022-08-30T00:13:48;7.35;;;4.32;;
18048;SDS011;9149;47.002;8.604;2022-08-30T00:16:18;10.43;;;5.00;;
18048;SDS011;9149;47.002;8.604;2022-08-30T00:18:46;7.55;;;4.57;;
18048;SDS011;9149;47.002;8.604;2022-08-30T00:21:15;7.20;;;4.55;;
18048;SDS011;9149;47.002;8.604;2022-08-30T00:23:43;12.65;;;4.30;;
18048;SDS011;9149;47.002;8.604;2022-08-30T00:26:11;9.80;;;4.90;;
18048;SDS011;9149;47.002;8.604;2022-08-30T00:28:38;7.50;;;4.45;;
18048;SDS011;9149;47.002;8.604;2022-08-30T00:31:06;10.48;;;5.15;;
18048;SDS011;9149;47.002;8.604;2022-08-30T00:33:34;7.00;;;4.30;;
18048;SDS011;9149;47.002;8.604;2022-08-30T00:36:02;7.95;;;4.70;;
18048;SDS011;9149;47.002;8.604;2022-08-30T00:38:31;6.75;;;4.57;;
18048;SDS011;9149;47.002;8.604;2022-08-30T00:40:59;7.45;;;4.20;;
18048;SDS011;9149;47.002;8.604;2022-08-30T00:43:27;11.27;;;4.70;;
18048;SDS011;9149;47.002;8.604;2022-08-30T00:45:56;6.72;;;4.35;;
18048;SDS011;9149;47.002;8.604;2022-08-30T00:48:24;7.03;;;4.35;;
18048;SDS011;9149;47.002;8.604;2022-08-30T00:50:53;7.47;;;4.47;;
18048;SDS011;9149;47.002;8.604;2022-08-30T00:53:24;7.07;;;4.80;;
18048;SDS011;9149;47.002;8.604;2022-08-30T00:55:53;7.88;;;4.80;;
18048;SDS011;9149;47.002;8.604;2022-08-30T00:58:24;9.13;;;4.82;;
18048;SDS011;9149;47.002;8.604;2022-08-30T01:00:54;7.60;;;4.60;;
18048;SDS011;9149;47.002;8.604;2022-08-30T01:03:23;7.70;;;5.07;;
18048;SDS011;9149;47.002;8.604;2022-08-30T01:05:51;9.57;;;4.88;;
18048;SDS011;9149;47.002;8.604;2022-08-30T01:08:19;11.63;;;4.82;;
18048;SDS011;9149;47.002;8.604;2022-08-30T01:10:47;7.63;;;4.68;;
18048;SDS011;9149;47.002;8.604;2022-08-30T01:13:17;10.52;;;4.95;;
18048;SDS011;9149;47.002;8.604;2022-08-30T01:15:47;9.43;;;4.93;;
18048;SDS011;9149;47.002;8.604;2022-08-30T01:18:16;8.45;;;4.28;;
18048;SDS011;9149;47.002;8.604;2022-08-30T01:20:48;10.88;;;4.68;;
18048;SDS011;9149;47.002;8.604;2022-08-30T01:23:19;8.57;;;4.97;;
18048;SDS011;9149;47.002;8.604;2022-08-30T01:25:48;9.98;;;4.32;;
18048;SDS011;9149;47.002;8.604;2022-08-30T01:28:17;6.90;;;4.32;;
18048;SDS011;9149;47.002;8.604;2022-08-30T01:30:46;9.05;;;4.90;;
18048;SDS011;9149;47.002;8.604;2022-08-30T01:33:14;10.98;;;4.68;;
18048;SDS011;9149;47.002;8.604;2022-08-30T01:35:43;6.95;;;3.78;;
18048;SDS011;9149;47.002;8.604;2022-08-30T01:38:12;7.43;;;4.20;;
18048;SDS011;9149;47.002;8.604;2022-08-30T01:40:42;7.22;;;4.07;;
18048;SDS011;9149;47.002;8.604;2022-08-30T01:43:10;8.85;;;5.03;;
18048;SDS011;9149;47.002;8.604;2022-08-30T01:45:39;7.25;;;4.50;;
18048;SDS011;9149;47.002;8.604;2022-08-30T01:48:07;11.32;;;4.40;;
18048;SDS011;9149;47.002;8.604;2022-08-30T01:50:39;7.25;;;4.43;;
18048;SDS011;9149;47.002;8.604;2022-08-30T01:53:07;9.25;;;4.30;;
18048;SDS011;9149;47.002;8.604;2022-08-30T01:55:38;7.82;;;4.38;;
18048;SDS011;9149;47.002;8.604;2022-08-30T01:58:08;8.57;;;5.00;;
18048;SDS011;9149;47.002;8.604;2022-08-30T02:00:36;8.18;;;4.78;;
18048;SDS011;9149;47.002;8.604;2022-08-30T02:03:04;8.00;;;4.60;;
18048;SDS011;9149;47.002;8.604;2022-08-30T02:05:31;6.18;;;4.20;;
18048;SDS011;9149;47.002;8.604;2022-08-30T02:07:59;7.03;;;4.70;;
18048;SDS011;9149;47.002;8.604;2022-08-30T02:10:27;7.90;;;4.35;;
18048;SDS011;9149;47.002;8.604;2022-08-30T02:12:55;6.82;;;4.22;;
18048;SDS011;9149;47.002;8.604;2022-08-30T02:15:24;8.07;;;4.43;;
18048;SDS011;9149;47.002;8.604;2022-08-30T02:17:51;11.90;;;4.68;;
18048;SDS011;9149;47.002;8.604;2022-08-30T02:20:19;13.25;;;4.50;;
18048;SDS011;9149;47.002;8.604;2022-08-30T02:22:47;10.95;;;4.82;;
18048;SDS011;9149;47.002;8.604;2022-08-30T02:25:15;6.82;;;4.20;;
18048;SDS011;9149;47.002;8.604;2022-08-30T02:27:46;10.80;;;4.80;;
18048;SDS011;9149;47.002;8.604;2022-08-30T02:30:14;7.90;;;4.85;;
18048;SDS011;9149;47.002;8.604;2022-08-30T02:32:43;7.53;;;4.18;;
18048;SDS011;9149;47.002;8.604;2022-08-30T02:35:11;10.73;;;5.00;;
18048;SDS011;9149;47.002;8.604;2022-08-30T02:37:38;9.10;;;4.50;;
18048;SDS011;9149;47.002;8.604;2022-08-30T02:40:06;10.32;;;5.07;;
18048;SDS011;9149;47.002;8.604;2022-08-30T02:42:35;10.10;;;4.88;;
18048;SDS011;9149;47.002;8.604;2022-08-30T02:45:03;11.20;;;4.93;;
18048;SDS011;9149;47.002;8.604;2022-08-30T02:47:30;7.47;;;4.20;;
18048;SDS011;9149;47.002;8.604;2022-08-30T02:49:59;8.77;;;5.00;;
18048;SDS011;9149;47.002;8.604;2022-08-30T02:52:28;7.90;;;4.68;;
18048;SDS011;9149;47.002;8.604;2022-08-30T02:54:55;7.63;;;4.80;;
18048;SDS011;9149;47.002;8.604;2022-08-30T02:57:23;9.20;;;4.43;;
18048;SDS011;9149;47.002;8.604;2022-08-30T02:59:51;8.95;;;4.43;;
18048;SDS011;9149;47.002;8.604;2022-08-30T03:02:18;8.52;;;4.90;;
18048;SDS011;9149;47.002;8.604;2022-08-30T03:04:47;8.30;;;4.63;;
18048;SDS011;9149;47.002;8.604;2022-08-30T03:07:17;8.80;;;5.25;;
18048;SDS011;9149;47.002;8.604;2022-08-30T03:09:45;8.05;;;4.70;;
18048;SDS011;9149;47.002;8.604;2022-08-30T03:12:12;9.90;;;4.70;;
18048;SDS011;9149;47.002;8.604;2022-08-30T03:14:40;9.10;;;5.20;;
18048;SDS011;9149;47.002;8.604;2022-08-30T03:17:08;9.93;;;5.05;;
18048;SDS011;9149;47.002;8.604;2022-08-30T03:19:41;8.30;;;4.47;;
18048;SDS011;9149;47.002;8.604;2022-08-30T03:22:09;10.98;;;4.47;;
18048;SDS011;9149;47.002;8.604;2022-08-30T03:24:38;10.05;;;4.45;;
18048;SDS011;9149;47.002;8.604;2022-08-30T03:27:06;8.63;;;5.05;;
18048;SDS011;9149;47.002;8.604;2022-08-30T03:29:34;7.13;;;4.40;;
18048;SDS011;9149;47.002;8.604;2022-08-30T03:32:01;7.13;;;4.15;;
18048;SDS011;9149;47.002;8.604;2022-08-30T03:34:29;8.27;;;4.57;;
18048;SDS011;9149;47.002;8.604;2022-08-30T03:36:57;7.65;;;4.72;;
18048;SDS011;9149;47.002;8.604;2022-08-30T03:39:26;9.52;;;4.90;;
18048;SDS011;9149;47.002;8.604;2022-08-30T03:41:55;8.35;;;4.88;;
18048;SDS011;9149;47.002;8.604;2022-08-30T03:44:24;10.32;;;4.80;;
18048;SDS011;9149;47.002;8.604;2022-08-30T03:46:53;7.95;;;4.32;;
18048;SDS011;9149;47.002;8.604;2022-08-30T03:49:21;9.98;;;5.00;;
18048;SDS011;9149;47.002;8.604;2022-08-30T03:51:49;7.78;;;4.50;;
18048;SDS011;9149;47.002;8.604;2022-08-30T03:54:17;9.52;;;5.10;;
18048;SDS011;9149;47.002;8.604;2022-08-30T03:56:45;9.43;;;4.85;;
18048;SDS011;9149;47.002;8.604;2022-08-30T03:59:14;7.40;;;4.55;;
18048;SDS011;9149;47.002;8.604;2022-08-30T04:01:43;8.48;;;4.50;;
18048;SDS011;9149;47.002;8.604;2022-08-30T04:04:11;9.55;;;5.10;;
18048;SDS011;9149;47.002;8.604;2022-08-30T04:06:45;7.13;;;4.35;;
18048;SDS011;9149;47.002;8.604;2022-08-30T04:09:13;7.45;;;4.90;;
18048;SDS011;9149;47.002;8.604;2022-08-30T04:11:41;8.23;;;4.88;;
18048;SDS011;9149;47.002;8.604;2022-08-30T04:14:08;7.38;;;4.53;;
18048;SDS011;9149;47.002;8.604;2022-08-30T04:16:38;12.68;;;5.05;;
18048;SDS011;9149;47.002;8.604;2022-08-30T04:19:05;7.25;;;4.53;;
18048;SDS011;9149;47.002;8.604;2022-08-30T04:21:33;7.32;;;4.90;;
18048;SDS011;9149;47.002;8.604;2022-08-30T04:24:08;8.13;;;4.95;;
18048;SDS011;9149;47.002;8.604;2022-08-30T04:26:36;8.25;;;4.60;;
18048;SDS011;9149;47.002;8.604;2022-08-30T04:29:04;8.80;;;4.95;;
18048;SDS011;9149;47.002;8.604;2022-08-30T04:31:31;8.30;;;4.85;;
18048;SDS011;9149;47.002;8.604;2022-08-30T04:34:00;11.52;;;5.00;;
18048;SDS011;9149;47.002;8.604;2022-08-30T04:36:28;8.32;;;4.75;;
18048;SDS011;9149;47.002;8.604;2022-08-30T04:38:56;9.90;;;5.10;;
18048;SDS011;9149;47.002;8.604;2022-08-30T04:41:24;7.53;;;4.22;;
18048;SDS011;9149;47.002;8.604;2022-08-30T04:43:51;7.72;;;4.70;;
18048;SDS011;9149;47.002;8.604;2022-08-30T04:46:19;8.48;;;4.88;;
18048;SDS011;9149;47.002;8.604;2022-08-30T04:48:47;7.50;;;4.75;;
18048;SDS011;9149;47.002;8.604;2022-08-30T04:51:16;8.57;;;4.50;;
18048;SDS011;9149;47.002;8.604;2022-08-30T04:53:45;7.80;;;4.53;;
18048;SDS011;9149;47.002;8.604;2022-08-30T04:56:14;7.80;;;4.90;;
18048;SDS011;9149;47.002;8.604;2022-08-30T04:58:42;9.88;;;5.43;;
18048;SDS011;9149;47.002;8.604;2022-08-30T05:03:57;8.98;;;5.40;;
18048;SDS011;9149;47.002;8.604;2022-08-30T05:06:28;10.70;;;5.00;;
18048;SDS011;9149;47.002;8.604;2022-08-30T05:08:57;8.75;;;4.88;;
18048;SDS011;9149;47.002;8.604;2022-08-30T05:11:26;9.40;;;5.38;;
18048;SDS011;9149;47.002;8.604;2022-08-30T05:13:54;8.60;;;5.30;;
18048;SDS011;9149;47.002;8.604;2022-08-30T05:16:21;7.45;;;5.10;;
18048;SDS011;9149;47.002;8.604;2022-08-30T05:18:50;13.68;;;5.15;;
18048;SDS011;9149;47.002;8.604;2022-08-30T05:21:18;8.00;;;4.72;;
18048;SDS011;9149;47.002;8.604;2022-08-30T05:23:48;8.68;;;4.97;;
18048;SDS011;9149;47.002;8.604;2022-08-30T05:26:19;10.40;;;4.97;;
18048;SDS011;9149;47.002;8.604;2022-08-30T05:28:47;8.13;;;4.75;;
18048;SDS011;9149;47.002;8.604;2022-08-30T05:31:16;7.95;;;4.72;;
18048;SDS011;9149;47.002;8.604;2022-08-30T05:33:45;10.13;;;4.93;;
18048;SDS011;9149;47.002;8.604;2022-08-30T05:36:14;9.02;;;5.30;;
18048;SDS011;9149;47.002;8.604;2022-08-30T05:38:43;7.50;;;4.50;;
18048;SDS011;9149;47.002;8.604;2022-08-30T05:41:12;13.98;;;5.43;;
18048;SDS011;9149;47.002;8.604;2022-08-30T05:43:41;9.15;;;4.85;;
18048;SDS011;9149;47.002;8.604;2022-08-30T05:46:10;7.90;;;4.78;;
18048;SDS011;9149;47.002;8.604;2022-08-30T05:48:39;11.23;;;5.13;;
18048;SDS011;9149;47.002;8.604;2022-08-30T05:51:08;9.00;;;5.05;;
18048;SDS011;9149;47.002;8.604;2022-08-30T05:53:37;9.20;;;4.63;;
18048;SDS011;9149;47.002;8.604;2022-08-30T05:56:05;8.90;;;5.07;;
18048;SDS011;9149;47.002;8.604;2022-08-30T05:58:35;11.55;;;4.93;;
18048;SDS011;9149;47.002;8.604;2022-08-30T06:01:03;9.13;;;4.72;;
18048;SDS011;9149;47.002;8.604;2022-08-30T06:03:31;15.57;;;4.90;;
18048;SDS011;9149;47.002;8.604;2022-08-30T06:05:59;7.00;;;4.63;;
18048;SDS011;9149;47.002;8.604;2022-08-30T06:08:28;14.73;;;4.43;;
18048;SDS011;9149;47.002;8.604;2022-08-30T06:10:56;11.48;;;4.32;;
18048;SDS011;9149;47.002;8.604;2022-08-30T06:13:23;8.13;;;4.50;;
18048;SDS011;9149;47.002;8.604;2022-08-30T06:15:52;11.98;;;4.35;;
18048;SDS011;9149;47.002;8.604;2022-08-30T06:18:20;13.55;;;4.13;;
18048;SDS011;9149;47.002;8.604;2022-08-30T06:20:54;8.20;;;4.50;;
18048;SDS011;9149;47.002;8.604;2022-08-30T06:23:22;9.48;;;4.35;;
18048;SDS011;9149;47.002;8.604;2022-08-30T06:25:50;8.52;;;4.65;;
18048;SDS011;9149;47.002;8.604;2022-08-30T06:28:17;9.63;;;4.35;;
18048;SDS011;9149;47.002;8.604;2022-08-30T06:30:45;9.27;;;4.28;;
18048;SDS011;9149;47.002;8.604;2022-08-30T06:33:14;8.23;;;4.28;;
18048;SDS011;9149;47.002;8.604;2022-08-30T06:35:42;8.25;;;4.45;;
18048;SDS011;9149;47.002;8.604;2022-08-30T06:38:24;7.00;;;4.28;;
18048;SDS011;9149;47.002;8.604;2022-08-30T06:40:52;8.10;;;4.25;;
18048;SDS011;9149;47.002;8.604;2022-08-30T06:43:20;5.32;;;3.97;;
18048;SDS011;9149;47.002;8.604;2022-08-30T06:45:47;12.25;;;4.47;;
18048;SDS011;9149;47.002;8.604;2022-08-30T06:48:16;9.23;;;4.53;;
18048;SDS011;9149;47.002;8.604;2022-08-30T06:50:44;7.15;;;4.30;;
18048;SDS011;9149;47.002;8.604;2022-08-30T06:53:12;6.35;;;3.97;;
18048;SDS011;9149;47.002;8.604;2022-08-30T06:55:40;8.25;;;4.43;;
18048;SDS011;9149;47.002;8.604;2022-08-30T06:58:09;8.77;;;4.40;;
18048;SDS011;9149;47.002;8.604;2022-08-30T07:00:37;9.13;;;3.95;;
18048;SDS011;9149;47.002;8.604;2022-08-30T07:03:07;8.10;;;4.28;;
18048;SDS011;9149;47.002;8.604;2022-08-30T07:05:36;6.10;;;4.05;;
18048;SDS011;9149;47.002;8.604;2022-08-30T07:08:04;9.88;;;4.20;;
18048;SDS011;9149;47.002;8.604;2022-08-30T07:10:31;7.50;;;4.20;;
18048;SDS011;9149;47.002;8.604;2022-08-30T07:12:59;6.15;;;3.92;;
18048;SDS011;9149;47.002;8.604;2022-08-30T07:15:27;6.28;;;3.83;;
18048;SDS011;9149;47.002;8.604;2022-08-30T07:17:59;9.70;;;4.00;;
18048;SDS011;9149;47.002;8.604;2022-08-30T07:20:37;8.75;;;4.10;;
18048;SDS011;9149;47.002;8.604;2022-08-30T07:23:06;6.75;;;4.15;;
18048;SDS011;9149;47.002;8.604;2022-08-30T07:25:34;6.90;;;4.18;;
18048;SDS011;9149;47.002;8.604;2022-08-30T07:28:02;5.75;;;3.80;;
18048;SDS011;9149;47.002;8.604;2022-08-30T07:30:30;6.60;;;3.97;;
18048;SDS011;9149;47.002;8.604;2022-08-30T07:32:58;6.43;;;3.80;;
18048;SDS011;9149;47.002;8.604;2022-08-30T07:35:26;10.13;;;4.30;;
18048;SDS011;9149;47.002;8.604;2022-08-30T07:37:55;11.05;;;4.32;;
18048;SDS011;9149;47.002;8.604;2022-08-30T07:40:22;9.57;;;3.75;;
18048;SDS011;9149;47.002;8.604;2022-08-30T07:42:50;6.13;;;3.88;;
18048;SDS011;9149;47.002;8.604;2022-08-30T07:45:18;9.45;;;3.70;;
18048;SDS011;9149;47.002;8.604;2022-08-30T07:47:46;5.78;;;3.53;;
18048;SDS011;9149;47.002;8.604;2022-08-30T07:50:14;4.47;;;3.30;;
18048;SDS011;9149;47.002;8.604;2022-08-30T07:52:42;6.72;;;3.28;;
18048;SDS011;9149;47.002;8.604;2022-08-30T07:55:11;5.10;;;3.22;;
18048;SDS011;9149;47.002;8.604;2022-08-30T07:57:39;5.78;;;3.25;;
18048;SDS011;9149;47.002;8.604;2022-08-30T08:00:07;4.55;;;2.72;;
18048;SDS011;9149;47.002;8.604;2022-08-30T08:02:38;3.92;;;2.42;;
18048;SDS011;9149;47.002;8.604;2022-08-30T08:05:07;4.22;;;3.20;;
18048;SDS011;9149;47.002;8.604;2022-08-30T08:07:40;4.55;;;3.05;;
18048;SDS011;9149;47.002;8.604;2022-08-30T08:10:09;5.47;;;3.08;;
18048;SDS011;9149;47.002;8.604;2022-08-30T08:12:38;5.93;;;3.30;;
18048;SDS011;9149;47.002;8.604;2022-08-30T08:15:06;7.30;;;3.28;;
18048;SDS011;9149;47.002;8.604;2022-08-30T08:17:34;5.43;;;3.63;;
18048;SDS011;9149;47.002;8.604;2022-08-30T08:20:02;8.68;;;3.53;;
18048;SDS011;9149;47.002;8.604;2022-08-30T08:22:30;6.82;;;3.20;;
18048;SDS011;9149;47.002;8.604;2022-08-30T08:25:02;4.55;;;3.20;;
18048;SDS011;9149;47.002;8.604;2022-08-30T08:27:30;10.25;;;3.78;;
18048;SDS011;9149;47.002;8.604;2022-08-30T08:29:59;6.22;;;3.92;;
18048;SDS011;9149;47.002;8.604;2022-08-30T08:32:27;5.32;;;3.38;;
18048;SDS011;9149;47.002;8.604;2022-08-30T08:34:55;6.13;;;4.05;;
18048;SDS011;9149;47.002;8.604;2022-08-30T08:37:23;4.97;;;3.45;;
18048;SDS011;9149;47.002;8.604;2022-08-30T08:39:53;6.63;;;4.07;;
18048;SDS011;9149;47.002;8.604;2022-08-30T08:42:22;5.75;;;3.50;;
18048;SDS011;9149;47.002;8.604;2022-08-30T08:44:53;11.88;;;4.30;;
18048;SDS011;9149;47.002;8.604;2022-08-30T08:47:29;7.45;;;4.45;;
18048;SDS011;9149;47.002;8.604;2022-08-30T08:50:05;6.15;;;4.32;;
18048;SDS011;9149;47.002;8.604;2022-08-30T08:52:41;9.43;;;5.50;;
18048;SDS011;9149;47.002;8.604;2022-08-30T08:55:21;8.30;;;4.70;;
18048;SDS011;9149;47.002;8.604;2022-08-30T08:57:49;8.18;;;4.35;;
18048;SDS011;9149;47.002;8.604;2022-08-30T09:00:17;9.23;;;4.45;;
18048;SDS011;9149;47.002;8.604;2022-08-30T09:02:50;7.70;;;4.85;;
18048;SDS011;9149;47.002;8.604;2022-08-30T09:05:22;9.10;;;4.82;;
18048;SDS011;9149;47.002;8.604;2022-08-30T09:07:53;7.72;;;4.88;;
18048;SDS011;9149;47.002;8.604;2022-08-30T09:10:22;8.25;;;5.03;;
18048;SDS011;9149;47.002;8.604;2022-08-30T09:13:11;8.18;;;5.00;;
18048;SDS011;9149;47.002;8.604;2022-08-30T09:15:40;8.70;;;4.88;;
18048;SDS011;9149;47.002;8.604;2022-08-30T09:18:10;11.40;;;5.63;;
18048;SDS011;9149;47.002;8.604;2022-08-30T09:20:46;10.98;;;4.95;;
18048;SDS011;9149;47.002;8.604;2022-08-30T09:23:19;8.70;;;5.22;;
18048;SDS011;9149;47.002;8.604;2022-08-30T09:25:50;8.27;;;5.20;;
18048;SDS011;9149;47.002;8.604;2022-08-30T09:28:20;10.55;;;5.05;;
18048;SDS011;9149;47.002;8.604;2022-08-30T09:30:56;10.63;;;5.07;;
18048;SDS011;9149;47.002;8.604;2022-08-30T09:33:25;14.73;;;5.53;;
18048;SDS011;9149;47.002;8.604;2022-08-30T09:35:53;7.13;;;4.90;;
18048;SDS011;9149;47.002;8.604;2022-08-30T09:38:21;10.82;;;5.20;;
18048;SDS011;9149;47.002;8.604;2022-08-30T09:40:50;8.70;;;5.47;;
18048;SDS011;9149;47.002;8.604;2022-08-30T09:43:20;8.20;;;5.05;;
18048;SDS011;9149;47.002;8.604;2022-08-30T09:46:04;10.93;;;5.78;;
18048;SDS011;9149;47.002;8.604;2022-08-30T09:48:35;9.52;;;4.95;;
18048;SDS011;9149;47.002;8.604;2022-08-30T09:51:12;14.27;;;5.85;;
18048;SDS011;9149;47.002;8.604;2022-08-30T09:53:47;9.00;;;5.15;;
18048;SDS011;9149;47.002;8.604;2022-08-30T09:56:37;8.13;;;5.07;;
18048;SDS011;9149;47.002;8.604;2022-08-30T09:59:07;8.27;;;5.18;;
18048;SDS011;9149;47.002;8.604;2022-08-30T10:01:40;8.55;;;4.93;;
18048;SDS011;9149;47.002;8.604;2022-08-30T10:04:12;10.57;;;4.78;;
18048;SDS011;9149;47.002;8.604;2022-08-30T10:06:43;9.80;;;4.95;;
18048;SDS011;9149;47.002;8.604;2022-08-30T10:09:16;6.82;;;4.72;;
18048;SDS011;9149;47.002;8.604;2022-08-30T10:11:50;12.10;;;5.13;;
18048;SDS011;9149;47.002;8.604;2022-08-30T10:17:00;8.23;;;4.53;;
18048;SDS011;9149;47.002;8.604;2022-08-30T10:19:38;8.50;;;4.60;;
18048;SDS011;9149;47.002;8.604;2022-08-30T10:22:10;13.50;;;5.40;;
18048;SDS011;9149;47.002;8.604;2022-08-30T10:24:41;10.18;;;5.10;;
18048;SDS011;9149;47.002;8.604;2022-08-30T10:27:11;9.27;;;4.40;;
18048;SDS011;9149;47.002;8.604;2022-08-30T10:29:45;7.63;;;4.80;;
18048;SDS011;9149;47.002;8.604;2022-08-30T10:32:17;7.05;;;4.53;;
18048;SDS011;9149;47.002;8.604;2022-08-30T10:34:49;7.72;;;4.45;;
18048;SDS011;9149;47.002;8.604;2022-08-30T10:37:18;7.32;;;4.47;;
18048;SDS011;9149;47.002;8.604;2022-08-30T10:39:48;6.53;;;4.38;;
18048;SDS011;9149;47.002;8.604;2022-08-30T10:42:17;7.47;;;4.75;;
18048;SDS011;9149;47.002;8.604;2022-08-30T10:44:47;9.88;;;5.32;;
18048;SDS011;9149;47.002;8.604;2022-08-30T10:47:19;7.03;;;4.57;;
18048;SDS011;9149;47.002;8.604;2022-08-30T10:49:51;7.53;;;4.35;;
18048;SDS011;9149;47.002;8.604;2022-08-30T10:52:22;7.43;;;4.32;;
18048;SDS011;9149;47.002;8.604;2022-08-30T10:54:53;6.63;;;4.22;;
18048;SDS011;9149;47.002;8.604;2022-08-30T10:57:23;5.70;;;3.80;;
18048;SDS011;9149;47.002;8.604;2022-08-30T10:59:52;6.78;;;4.45;;
18048;SDS011;9149;47.002;8.604;2022-08-30T11:02:27;6.65;;;3.60;;
18048;SDS011;9149;47.002;8.604;2022-08-30T11:07:39;7.47;;;4.43;;
18048;SDS011;9149;47.002;8.604;2022-08-30T11:10:17;5.80;;;3.80;;
18048;SDS011;9149;47.002;8.604;2022-08-30T11:12:51;6.57;;;3.92;;
18048;SDS011;9149;47.002;8.604;2022-08-30T11:15:20;6.20;;;3.92;;
18048;SDS011;9149;47.002;8.604;2022-08-30T11:17:52;6.80;;;4.03;;
18048;SDS011;9149;47.002;8.604;2022-08-30T11:20:27;10.43;;;4.05;;
18048;SDS011;9149;47.002;8.604;2022-08-30T11:23:14;6.07;;;3.92;;
18048;SDS011;9149;47.002;8.604;2022-08-30T11:25:46;5.78;;;3.72;;
18048;SDS011;9149;47.002;8.604;2022-08-30T11:31:03;4.65;;;3.15;;
18048;SDS011;9149;47.002;8.604;2022-08-30T11:33:41;4.20;;;3.20;;
18048;SDS011;9149;47.002;8.604;2022-08-30T11:36:59;11.63;;;3.65;;
18048;SDS011;9149;47.002;8.604;2022-08-30T11:39:34;4.40;;;3.15;;
18048;SDS011;9149;47.002;8.604;2022-08-30T11:42:08;5.60;;;3.50;;
18048;SDS011;9149;47.002;8.604;2022-08-30T11:44:37;7.05;;;3.63;;
18048;SDS011;9149;47.002;8.604;2022-08-30T11:49:52;10.48;;;3.65;;
18048;SDS011;9149;47.002;8.604;2022-08-30T11:52:26;11.25;;;3.80;;
18048;SDS011;9149;47.002;8.604;2022-08-30T11:55:02;6.68;;;4.10;;
18048;SDS011;9149;47.002;8.604;2022-08-30T11:57:35;6.85;;;4.22;;
18048;SDS011;9149;47.002;8.604;2022-08-30T12:00:07;7.80;;;4.15;;
18048;SDS011;9149;47.002;8.604;2022-08-30T12:02:45;7.00;;;4.45;;
18048;SDS011;9149;47.002;8.604;2022-08-30T12:07:56;12.40;;;3.63;;
18048;SDS011;9149;47.002;8.604;2022-08-30T12:10:34;6.47;;;3.70;;
18048;SDS011;9149;47.002;8.604;2022-08-30T12:13:03;8.55;;;3.67;;
18048;SDS011;9149;47.002;8.604;2022-08-30T12:18:15;6.10;;;3.88;;
18048;SDS011;9149;47.002;8.604;2022-08-30T12:20:55;6.28;;;3.85;;
18048;SDS011;9149;47.002;8.604;2022-08-30T12:23:32;4.72;;;3.30;;
18048;SDS011;9149;47.002;8.604;2022-08-30T12:26:09;5.22;;;3.88;;
18048;SDS011;9149;47.002;8.604;2022-08-30T12:28:38;19.45;;;4.30;;
18048;SDS011;9149;47.002;8.604;2022-08-30T12:31:08;8.73;;;3.55;;
18048;SDS011;9149;47.002;8.604;2022-08-30T12:33:39;5.70;;;3.38;;
18048;SDS011;9149;47.002;8.604;2022-08-30T12:36:10;5.47;;;3.58;;
18048;SDS011;9149;47.002;8.604;2022-08-30T12:38:39;6.25;;;3.53;;
18048;SDS011;9149;47.002;8.604;2022-08-30T12:41:07;8.20;;;4.32;;
18048;SDS011;9149;47.002;8.604;2022-08-30T12:43:36;6.63;;;4.53;;
18048;SDS011;9149;47.002;8.604;2022-08-30T12:46:08;5.75;;;3.83;;
18048;SDS011;9149;47.002;8.604;2022-08-30T12:48:37;6.18;;;3.58;;
18048;SDS011;9149;47.002;8.604;2022-08-30T12:51:06;7.15;;;4.25;;
18048;SDS011;9149;47.002;8.604;2022-08-30T12:53:37;6.63;;;4.05;;
18048;SDS011;9149;47.002;8.604;2022-08-30T12:56:08;5.63;;;3.72;;
18048;SDS011;9149;47.002;8.604;2022-08-30T12:58:39;10.20;;;3.63;;
18048;SDS011;9149;47.002;8.604;2022-08-30T13:01:11;8.93;;;3.65;;
18048;SDS011;9149;47.002;8.604;2022-08-30T13:03:40;5.07;;;3.30;;
18048;SDS011;9149;47.002;8.604;2022-08-30T13:06:07;6.07;;;3.78;;
18048;SDS011;9149;47.002;8.604;2022-08-30T13:08:36;7.90;;;3.92;;
18048;SDS011;9149;47.002;8.604;2022-08-30T13:11:22;7.63;;;4.45;;
18048;SDS011;9149;47.002;8.604;2022-08-30T13:13:59;8.60;;;4.90;;
18048;SDS011;9149;47.002;8.604;2022-08-30T13:16:45;8.18;;;4.50;;
18048;SDS011;9149;47.002;8.604;2022-08-30T13:19:17;7.82;;;4.18;;
18048;SDS011;9149;47.002;8.604;2022-08-30T13:21:48;6.93;;;4.35;;
18048;SDS011;9149;47.002;8.604;2022-08-30T13:24:16;7.93;;;4.15;;
18048;SDS011;9149;47.002;8.604;2022-08-30T13:26:50;6.97;;;4.13;;
18048;SDS011;9149;47.002;8.604;2022-08-30T13:29:21;8.90;;;4.20;;
18048;SDS011;9149;47.002;8.604;2022-08-30T13:31:49;9.32;;;3.88;;
18048;SDS011;9149;47.002;8.604;2022-08-30T13:34:17;8.10;;;4.25;;
18048;SDS011;9149;47.002;8.604;2022-08-30T13:36:49;6.68;;;4.03;;
18048;SDS011;9149;47.002;8.604;2022-08-30T13:39:16;7.88;;;4.50;;
18048;SDS011;9149;47.002;8.604;2022-08-30T13:41:48;7.38;;;4.30;;
18048;SDS011;9149;47.002;8.604;2022-08-30T13:44:17;8.38;;;4.65;;
18048;SDS011;9149;47.002;8.604;2022-08-30T13:46:47;9.73;;;4.03;;
18048;SDS011;9149;47.002;8.604;2022-08-30T13:49:22;5.97;;;3.75;;
18048;SDS011;9149;47.002;8.604;2022-08-30T13:52:10;9.73;;;4.25;;
18048;SDS011;9149;47.002;8.604;2022-08-30T13:54:47;6.85;;;4.00;;
18048;SDS011;9149;47.002;8.604;2022-08-30T13:57:17;6.30;;;3.63;;
18048;SDS011;9149;47.002;8.604;2022-08-30T14:00:07;9.52;;;4.28;;
18048;SDS011;9149;47.002;8.604;2022-08-30T14:02:39;5.00;;;3.70;;
18048;SDS011;9149;47.002;8.604;2022-08-30T14:05:14;6.47;;;4.00;;
18048;SDS011;9149;47.002;8.604;2022-08-30T14:08:02;8.35;;;3.70;;
18048;SDS011;9149;47.002;8.604;2022-08-30T14:10:31;12.32;;;3.80;;
18048;SDS011;9149;47.002;8.604;2022-08-30T14:13:12;9.18;;;3.55;;
18048;SDS011;9149;47.002;8.604;2022-08-30T14:15:40;7.18;;;4.00;;
18048;SDS011;9149;47.002;8.604;2022-08-30T14:18:09;4.65;;;3.50;;
18048;SDS011;9149;47.002;8.604;2022-08-30T14:20:43;7.60;;;3.85;;
18048;SDS011;9149;47.002;8.604;2022-08-30T14:23:11;5.82;;;3.50;;
18048;SDS011;9149;47.002;8.604;2022-08-30T14:25:39;6.28;;;3.85;;
18048;SDS011;9149;47.002;8.604;2022-08-30T14:28:06;9.38;;;3.42;;
18048;SDS011;9149;47.002;8.604;2022-08-30T14:30:35;5.43;;;3.47;;
18048;SDS011;9149;47.002;8.604;2022-08-30T14:33:04;9.18;;;3.42;;
18048;SDS011;9149;47.002;8.604;2022-08-30T14:35:35;7.88;;;3.28;;
18048;SDS011;9149;47.002;8.604;2022-08-30T14:38:23;5.72;;;3.58;;
18048;SDS011;9149;47.002;8.604;2022-08-30T14:40:51;5.80;;;3.15;;
18048;SDS011;9149;47.002;8.604;2022-08-30T14:43:18;7.05;;;3.70;;
18048;SDS011;9149;47.002;8.604;2022-08-30T14:45:48;5.93;;;3.63;;
18048;SDS011;9149;47.002;8.604;2022-08-30T14:48:16;7.38;;;3.55;;
18048;SDS011;9149;47.002;8.604;2022-08-30T14:50:46;5.93;;;4.25;;
18048;SDS011;9149;47.002;8.604;2022-08-30T14:53:14;5.40;;;3.30;;
18048;SDS011;9149;47.002;8.604;2022-08-30T14:55:42;6.07;;;3.53;;
18048;SDS011;9149;47.002;8.604;2022-08-30T14:58:10;6.60;;;3.80;;
18048;SDS011;9149;47.002;8.604;2022-08-30T15:00:37;6.80;;;3.85;;
18048;SDS011;9149;47.002;8.604;2022-08-30T15:03:05;7.38;;;3.50;;
18048;SDS011;9149;47.002;8.604;2022-08-30T15:05:37;5.00;;;3.45;;
18048;SDS011;9149;47.002;8.604;2022-08-30T15:08:06;8.07;;;3.90;;
18048;SDS011;9149;47.002;8.604;2022-08-30T15:10:33;6.25;;;3.53;;
18048;SDS011;9149;47.002;8.604;2022-08-30T15:13:02;5.40;;;3.50;;
18048;SDS011;9149;47.002;8.604;2022-08-30T15:15:31;7.82;;;4.03;;
18048;SDS011;9149;47.002;8.604;2022-08-30T15:17:59;7.05;;;3.90;;
18048;SDS011;9149;47.002;8.604;2022-08-30T15:20:27;6.28;;;4.03;;
18048;SDS011;9149;47.002;8.604;2022-08-30T15:22:56;6.93;;;3.65;;
18048;SDS011;9149;47.002;8.604;2022-08-30T15:25:25;5.05;;;3.70;;
18048;SDS011;9149;47.002;8.604;2022-08-30T15:27:52;5.63;;;3.60;;
18048;SDS011;9149;47.002;8.604;2022-08-30T15:30:21;7.95;;;3.90;;
18048;SDS011;9149;47.002;8.604;2022-08-30T15:32:49;5.63;;;3.60;;
18048;SDS011;9149;47.002;8.604;2022-08-30T15:35:17;6.38;;;3.70;;
18048;SDS011;9149;47.002;8.604;2022-08-30T15:37:48;7.72;;;4.10;;